Time;durP1;ratioP1;P1;durP2;ratioP2;P2;SDS_P1;SDS_P2;PMS_P1;PMS_P2;Temp;Humidity;BMP_temperature;BMP_pressure;BME280_temperature;BME280_humidity;BME280_pressure;Samples;Min_cycle;Max_cycle;Signal;HPM_P1;HPM_P2
2021/07/06 00:01:33;;;;;;;18.43;13.43;;;19.90;99.90;;;;;;5267112;27;20156;-66
2021/07/06 00:04:00;;;;;;;19.90;14.23;;;19.90;99.90;;;;;;5267240;27;20160;-66
2021/07/06 00:06:27;;;;;;;22.23;14.73;;;19.70;99.90;;;;;;5266011;27;20437;-66
2021/07/06 00:08:53;;;;;;;21.60;13.93;;;19.70;99.90;;;;;;5265016;27;20461;-66
2021/07/06 00:11:20;;;;;;;19.77;14.33;;;19.70;99.90;;;;;;5267054;27;20169;-66
2021/07/06 00:13:47;;;;;;;19.87;14.73;;;19.80;99.90;;;;;;5267020;27;20138;-66
2021/07/06 00:16:14;;;;;;;21.30;13.63;;;19.80;99.90;;;;;;5266936;27;20134;-66
2021/07/06 00:18:41;;;;;;;19.47;14.63;;;19.70;99.90;;;;;;5265189;27;20416;-66
2021/07/06 00:21:09;;;;;;;18.97;14.33;;;19.70;99.90;;;;;;5266962;27;20111;-66
2021/07/06 00:23:36;;;;;;;20.07;13.83;;;19.70;99.90;;;;;;5263977;27;20453;-66
2021/07/06 00:26:02;;;;;;;21.77;14.17;;;19.70;99.90;;;;;;5266830;27;20130;-66
2021/07/06 00:28:29;;;;;;;17.50;13.77;;;19.70;99.90;;;;;;5266232;27;20498;-66
2021/07/06 00:30:56;;;;;;;17.63;13.77;;;19.70;99.90;;;;;;5265332;27;20107;-66
2021/07/06 00:33:28;;;;;;;18.63;14.20;;;19.70;99.90;;;;;;5267002;27;20417;-66
2021/07/06 00:35:58;;;;;;;20.93;14.47;;;19.60;99.90;;;;;;5267205;27;20151;-66
2021/07/06 00:38:26;;;;;;;21.00;14.47;;;19.50;99.90;;;;;;5266880;27;20155;-67
2021/07/06 00:40:55;;;;;;;18.80;14.23;;;19.60;99.90;;;;;;5266311;27;20115;-66
2021/07/06 00:43:22;;;;;;;18.73;14.67;;;19.50;99.90;;;;;;5266904;27;20114;-66
2021/07/06 00:45:50;;;;;;;18.27;14.83;;;19.60;99.90;;;;;;5265458;27;20138;-66
2021/07/06 00:48:17;;;;;;;20.17;15.23;;;19.50;99.90;;;;;;5266345;27;20433;-67
2021/07/06 00:50:44;;;;;;;21.93;15.27;;;19.50;99.90;;;;;;5266700;27;20407;-66
2021/07/06 00:53:10;;;;;;;19.37;14.77;;;19.50;99.90;;;;;;5266573;27;20176;-66
2021/07/06 00:55:38;;;;;;;21.43;15.73;;;19.50;99.90;;;;;;5266565;27;20122;-67
2021/07/06 00:58:04;;;;;;;23.50;15.47;;;19.50;99.90;;;;;;5266614;27;20370;-66
2021/07/06 01:00:32;;;;;;;23.80;15.67;;;19.50;99.90;;;;;;5266627;27;20157;-67
2021/07/06 01:02:59;;;;;;;23.67;15.63;;;19.40;99.90;;;;;;5264481;27;20115;-67
2021/07/06 01:05:26;;;;;;;22.27;15.47;;;19.40;99.90;;;;;;5265890;27;20129;-67
2021/07/06 01:07:54;;;;;;;20.07;14.97;;;19.40;99.90;;;;;;5264398;27;20119;-67
2021/07/06 01:10:21;;;;;;;22.60;15.60;;;19.40;99.90;;;;;;5266727;27;20437;-65
2021/07/06 01:12:49;;;;;;;22.70;15.43;;;19.30;99.90;;;;;;5265702;27;20110;-66
2021/07/06 01:15:19;;;;;;;24.07;15.93;;;19.30;99.90;;;;;;5266441;27;20118;-66
2021/07/06 01:17:57;;;;;;;24.87;16.53;;;19.30;99.90;;;;;;5264219;27;20115;-66
2021/07/06 01:20:24;;;;;;;24.83;17.03;;;19.20;99.90;;;;;;5266437;27;20430;-66
2021/07/06 01:22:51;;;;;;;21.67;15.63;;;19.20;99.90;;;;;;5266435;27;20448;-66
2021/07/06 01:25:18;;;;;;;24.70;16.80;;;19.20;99.90;;;;;;5266633;27;20114;-66
2021/07/06 01:27:45;;;;;;;23.77;15.97;;;19.00;99.90;;;;;;5266429;27;20478;-66
2021/07/06 01:30:15;;;;;;;25.67;16.90;;;19.00;99.90;;;;;;5265697;27;20115;-66
2021/07/06 01:32:44;;;;;;;23.57;15.97;;;19.10;99.90;;;;;;5264943;27;20158;-66
2021/07/06 01:35:14;;;;;;;22.27;15.83;;;19.10;99.90;;;;;;5266345;27;20156;-66
2021/07/06 01:37:46;;;;;;;23.17;15.80;;;19.00;99.90;;;;;;5266262;27;20184;-66
2021/07/06 01:40:15;;;;;;;22.97;15.10;;;19.00;99.90;;;;;;5266262;27;20485;-66
2021/07/06 01:42:43;;;;;;;23.63;15.80;;;19.00;99.90;;;;;;5266177;27;20114;-66
2021/07/06 01:45:19;;;;;;;21.03;15.03;;;18.90;99.90;;;;;;5266128;27;20418;-66
2021/07/06 01:47:51;;;;;;;20.13;15.00;;;18.90;99.90;;;;;;5266202;27;20110;-66
2021/07/06 01:50:32;;;;;;;23.60;15.37;;;18.90;99.90;;;;;;5264143;27;20133;-66
2021/07/06 01:53:04;;;;;;;24.73;16.27;;;18.80;99.90;;;;;;5266375;27;20118;-66
2021/07/06 01:55:34;;;;;;;22.60;15.87;;;18.90;99.90;;;;;;5266129;27;20193;-66
2021/07/06 01:58:03;;;;;;;22.97;16.27;;;18.90;99.90;;;;;;5266290;27;20138;-66
2021/07/06 02:00:32;;;;;;;20.50;16.03;;;18.90;99.90;;;;;;5266146;27;20115;-66
2021/07/06 02:03:00;;;;;;;23.10;16.77;;;18.90;99.90;;;;;;5264069;27;20164;-66
2021/07/06 02:05:32;;;;;;;22.23;16.50;;;19.00;99.90;;;;;;5265198;27;20106;-66
2021/07/06 02:08:00;;;;;;;20.90;14.87;;;18.90;99.90;;;;;;5266151;27;20373;-66
2021/07/06 02:10:28;;;;;;;22.30;15.17;;;18.80;99.90;;;;;;5266142;27;20341;-66
2021/07/06 02:12:56;;;;;;;22.53;16.00;;;18.80;99.90;;;;;;5263973;27;20186;-66
2021/07/06 02:15:24;;;;;;;23.87;16.13;;;18.70;99.90;;;;;;5264371;27;20130;-66
2021/07/06 02:17:52;;;;;;;21.33;16.47;;;18.70;99.90;;;;;;5266159;27;20150;-66
2021/07/06 02:20:21;;;;;;;26.43;15.87;;;18.70;99.90;;;;;;5266107;27;20157;-66
2021/07/06 02:22:49;;;;;;;26.57;17.43;;;18.70;99.90;;;;;;5246945;27;20163;-66
2021/07/06 02:25:18;;;;;;;24.20;17.27;;;18.70;99.90;;;;;;5265985;27;20420;-66
2021/07/06 02:27:47;;;;;;;24.00;16.80;;;18.70;99.90;;;;;;5246963;27;20164;-66
2021/07/06 02:30:22;;;;;;;21.30;16.07;;;18.60;99.90;;;;;;5266579;27;20163;-66
2021/07/06 02:32:50;;;;;;;24.47;16.77;;;18.60;99.90;;;;;;5266234;27;20118;-66
2021/07/06 02:35:18;;;;;;;20.93;15.80;;;18.50;99.90;;;;;;5266052;27;20111;-66
2021/07/06 02:37:45;;;;;;;23.63;16.57;;;18.60;99.90;;;;;;5263695;27;20180;-66
2021/07/06 02:40:14;;;;;;;22.57;16.43;;;18.50;99.90;;;;;;5265982;27;20127;-66
2021/07/06 02:42:42;;;;;;;22.73;16.23;;;18.50;99.90;;;;;;5265884;27;20138;-66
2021/07/06 02:45:11;;;;;;;22.37;16.43;;;18.50;99.90;;;;;;5265325;27;20181;-66
2021/07/06 02:47:38;;;;;;;25.17;17.13;;;18.60;99.90;;;;;;5263983;27;20153;-66
2021/07/06 02:50:07;;;;;;;23.67;16.73;;;18.60;99.90;;;;;;5244688;27;20369;-67
2021/07/06 02:52:34;;;;;;;24.67;16.80;;;18.50;99.90;;;;;;5265811;27;20115;-66
2021/07/06 02:55:03;;;;;;;25.67;17.20;;;18.50;99.90;;;;;;5266055;27;20142;-67
2021/07/06 02:57:39;;;;;;;24.67;16.43;;;18.50;99.90;;;;;;5263402;27;20154;-66
2021/07/06 03:00:13;;;;;;;21.43;16.33;;;18.60;99.90;;;;;;5266249;27;20163;-66
2021/07/06 03:02:42;;;;;;;24.87;16.50;;;18.60;99.90;;;;;;5266100;27;20156;-66
2021/07/06 03:05:11;;;;;;;25.83;16.57;;;18.60;99.90;;;;;;5266485;27;20126;-67
2021/07/06 03:07:39;;;;;;;23.43;16.93;;;18.50;99.90;;;;;;5265878;27;20134;-66
2021/07/06 03:10:11;;;;;;;22.57;16.40;;;18.50;99.90;;;;;;5265952;27;20111;-67
2021/07/06 03:12:39;;;;;;;24.33;16.70;;;18.50;99.90;;;;;;5265722;27;20106;-67
2021/07/06 03:15:09;;;;;;;23.10;17.00;;;18.50;99.90;;;;;;5265189;27;20345;-67
2021/07/06 03:17:36;;;;;;;24.33;16.57;;;18.60;99.90;;;;;;5267269;27;20122;-66
2021/07/06 03:20:06;;;;;;;24.00;16.77;;;18.60;99.90;;;;;;5265212;27;20123;-66
2021/07/06 03:22:33;;;;;;;23.17;17.47;;;18.60;99.90;;;;;;5265171;27;20126;-67
2021/07/06 03:25:00;;;;;;;24.80;17.17;;;18.60;99.90;;;;;;5267243;27;20160;-67
2021/07/06 03:27:27;;;;;;;25.30;17.47;;;18.60;99.90;;;;;;5265506;27;20122;-67
2021/07/06 03:29:54;;;;;;;25.83;18.33;;;18.60;99.90;;;;;;5267177;27;20162;-66
2021/07/06 03:32:21;;;;;;;28.93;19.70;;;18.60;99.90;;;;;;5267195;27;20152;-67
2021/07/06 03:34:48;;;;;;;30.73;22.10;;;18.70;99.90;;;;;;5267143;27;20478;-66
2021/07/06 03:37:15;;;;;;;30.43;22.83;;;18.60;99.90;;;;;;5267620;27;20121;-66
2021/07/06 03:39:42;;;;;;;30.77;22.87;;;18.70;99.90;;;;;;5266299;27;20363;-66
2021/07/06 03:42:10;;;;;;;30.73;22.77;;;18.80;99.90;;;;;;5265044;27;20421;-66
2021/07/06 03:44:38;;;;;;;28.83;21.10;;;18.80;99.90;;;;;;5264977;27;20156;-66
2021/07/06 03:47:05;;;;;;;28.63;21.30;;;19.00;99.90;;;;;;5264522;27;20153;-67
2021/07/06 03:49:33;;;;;;;31.03;21.23;;;19.20;99.90;;;;;;5267058;27;20385;-66
2021/07/06 03:52:01;;;;;;;29.00;19.43;;;19.20;99.90;;;;;;5264684;27;20229;-66
2021/07/06 03:54:28;;;;;;;25.67;18.80;;;19.30;99.90;;;;;;5263929;27;20411;-66
2021/07/06 03:56:56;;;;;;;26.13;18.67;;;19.40;99.90;;;;;;5266676;27;20166;-66
2021/07/06 03:59:23;;;;;;;30.10;18.23;;;19.40;99.90;;;;;;5264876;27;20121;-66
2021/07/06 04:01:50;;;;;;;26.83;18.00;;;19.50;99.90;;;;;;5266904;27;20111;-66
2021/07/06 04:04:17;;;;;;;25.10;17.10;;;19.60;99.90;;;;;;5266949;27;20115;-66
2021/07/06 04:06:45;;;;;;;22.10;16.73;;;19.50;99.90;;;;;;5266893;27;20126;-66
2021/07/06 04:09:12;;;;;;;24.20;17.53;;;19.40;99.90;;;;;;5264677;27;20218;-66
2021/07/06 04:11:39;;;;;;;20.37;15.63;;;19.40;99.90;;;;;;5266159;27;20365;-66
2021/07/06 04:14:07;;;;;;;22.93;16.90;;;19.40;99.90;;;;;;5266159;27;20114;-66
2021/07/06 04:16:34;;;;;;;20.60;16.80;;;19.40;99.90;;;;;;5266431;27;20122;-66
2021/07/06 04:19:02;;;;;;;23.83;17.03;;;19.30;99.90;;;;;;5266965;27;20170;-66
2021/07/06 04:21:31;;;;;;;24.03;15.57;;;19.20;99.90;;;;;;5265643;27;20111;-66
2021/07/06 04:23:58;;;;;;;23.03;16.03;;;19.30;99.90;;;;;;5266475;27;20114;-66
2021/07/06 04:26:27;;;;;;;19.67;15.40;;;19.40;99.90;;;;;;5263997;27;20114;-65
2021/07/06 04:28:54;;;;;;;20.33;16.33;;;19.40;99.90;;;;;;5266358;27;20162;-66
2021/07/06 04:31:21;;;;;;;21.77;16.63;;;19.30;99.90;;;;;;5266683;27;20129;-67
2021/07/06 04:33:48;;;;;;;24.27;16.20;;;19.30;99.90;;;;;;5266897;27;20166;-66
2021/07/06 04:36:15;;;;;;;27.97;17.33;;;19.30;99.90;;;;;;5266815;27;20145;-66
2021/07/06 04:38:42;;;;;;;23.20;16.00;;;19.40;99.90;;;;;;5266851;27;20460;-66
2021/07/06 04:41:09;;;;;;;21.73;16.27;;;19.50;99.90;;;;;;5266815;27;20114;-66
2021/07/06 04:43:36;;;;;;;22.73;16.27;;;19.60;99.90;;;;;;5266995;27;20122;-66
2021/07/06 04:46:03;;;;;;;22.13;16.07;;;19.70;99.90;;;;;;5265412;27;20138;-66
2021/07/06 04:48:30;;;;;;;23.57;16.40;;;19.80;99.90;;;;;;5266883;27;20127;-66
2021/07/06 04:51:04;;;;;;;24.20;16.60;;;19.80;99.90;;;;;;5266750;27;20123;-66
2021/07/06 04:53:31;;;;;;;23.13;15.77;;;19.90;99.90;;;;;;5265047;27;20111;-66
2021/07/06 04:55:59;;;;;;;20.80;15.63;;;20.00;99.90;;;;;;5267207;27;20110;-66
2021/07/06 04:58:25;;;;;;;22.97;15.67;;;20.00;99.90;;;;;;5266583;27;20134;-66
2021/07/06 05:00:52;;;;;;;22.17;14.93;;;20.00;99.90;;;;;;5266682;27;20158;-66
2021/07/06 05:03:19;;;;;;;21.87;16.50;;;20.20;99.90;;;;;;5266478;27;20394;-65
2021/07/06 05:05:46;;;;;;;22.20;15.27;;;20.20;99.90;;;;;;5267223;27;20384;-66
2021/07/06 05:08:13;;;;;;;23.13;15.53;;;20.30;99.90;;;;;;5266886;27;20473;-66
2021/07/06 05:10:40;;;;;;;22.27;15.20;;;20.40;99.90;;;;;;5266279;27;20114;-66
2021/07/06 05:13:11;;;;;;;23.37;16.77;;;20.50;99.90;;;;;;5266580;27;20160;-66
2021/07/06 05:15:38;;;;;;;20.73;15.37;;;20.40;99.90;;;;;;5266744;27;20123;-66
2021/07/06 05:18:05;;;;;;;21.20;15.43;;;20.50;99.90;;;;;;5264668;27;20157;-66
2021/07/06 05:20:32;;;;;;;25.87;16.60;;;20.60;99.90;;;;;;5265735;27;20142;-67
2021/07/06 05:22:59;;;;;;;23.03;15.67;;;20.60;99.90;;;;;;5263302;27;20374;-66
2021/07/06 05:25:26;;;;;;;20.57;14.27;;;20.70;99.90;;;;;;5266420;27;20114;-66
2021/07/06 05:27:57;;;;;;;23.63;14.97;;;20.80;99.90;;;;;;5264094;27;20126;-66
2021/07/06 05:30:24;;;;;;;21.87;15.77;;;20.90;99.90;;;;;;5266331;27;20110;-65
2021/07/06 05:32:51;;;;;;;18.47;13.97;;;21.00;99.90;;;;;;5266495;27;20118;-65
2021/07/06 05:35:18;;;;;;;17.30;13.13;;;21.00;99.90;;;;;;5264568;27;20365;-67
2021/07/06 05:37:45;;;;;;;19.07;13.63;;;21.20;99.90;;;;;;5264574;27;20123;-67
2021/07/06 05:40:13;;;;;;;19.13;13.07;;;21.40;99.90;;;;;;5265748;27;20115;-68
2021/07/06 05:42:41;;;;;;;19.40;13.63;;;21.50;99.90;;;;;;5266648;27;20285;-67
2021/07/06 05:45:10;;;;;;;20.30;14.47;;;21.70;99.90;;;;;;5265834;27;20158;-67
2021/07/06 05:47:38;;;;;;;17.50;13.83;;;21.70;99.90;;;;;;5265348;27;20125;-67
2021/07/06 05:50:07;;;;;;;17.87;13.97;;;21.80;99.90;;;;;;5266562;27;20122;-67
2021/07/06 05:52:35;;;;;;;17.33;13.17;;;21.80;99.90;;;;;;5263738;27;20197;-67
2021/07/06 05:55:03;;;;;;;16.57;13.13;;;22.00;99.90;;;;;;5265844;27;20120;-67
2021/07/06 05:57:30;;;;;;;15.80;12.33;;;22.00;99.90;;;;;;5266191;27;20158;-66
2021/07/06 05:59:58;;;;;;;18.13;12.63;;;22.00;99.90;;;;;;5266346;27;20114;-66
2021/07/06 06:02:25;;;;;;;17.27;12.20;;;22.10;99.90;;;;;;5266509;27;20222;-66
2021/07/06 06:04:52;;;;;;;15.70;11.90;;;22.20;99.90;;;;;;5266771;27;20154;-65
2021/07/06 06:07:19;;;;;;;19.20;12.10;;;22.40;99.90;;;;;;5266307;27;20110;-65
2021/07/06 06:09:46;;;;;;;17.87;12.10;;;22.50;99.90;;;;;;5266493;27;20165;-65
2021/07/06 06:12:13;;;;;;;16.03;11.67;;;22.60;99.90;;;;;;5266461;27;20512;-66
2021/07/06 06:14:40;;;;;;;20.60;11.40;;;22.50;99.90;;;;;;5266423;27;20115;-66
2021/07/06 06:17:07;;;;;;;14.83;10.80;;;22.60;99.90;;;;;;5266161;27;20173;-66
2021/07/06 06:19:34;;;;;;;14.27;10.47;;;22.70;99.90;;;;;;5266235;27;20421;-66
2021/07/06 06:22:04;;;;;;;13.10;10.27;;;22.80;99.90;;;;;;5266760;27;20118;-66
2021/07/06 06:24:31;;;;;;;13.87;10.43;;;22.90;99.90;;;;;;5266290;27;20111;-66
2021/07/06 06:26:58;;;;;;;17.77;10.73;;;23.10;99.90;;;;;;5266257;27;20220;-66
2021/07/06 06:29:25;;;;;;;13.93;10.30;;;23.10;99.90;;;;;;5266393;27;20153;-66
2021/07/06 06:31:51;;;;;;;16.00;10.60;;;23.20;99.90;;;;;;5266350;27;20129;-66
2021/07/06 06:34:18;;;;;;;17.47;10.20;;;23.30;99.90;;;;;;5266182;27;20409;-66
2021/07/06 06:36:45;;;;;;;16.20;10.50;;;23.40;99.90;;;;;;5263988;27;20333;-66
2021/07/06 06:39:12;;;;;;;21.07;10.77;;;23.40;99.90;;;;;;5264363;27;20152;-66
2021/07/06 06:41:39;;;;;;;16.00;10.50;;;23.40;99.90;;;;;;5264015;27;20125;-66
2021/07/06 06:44:06;;;;;;;20.35;11.23;;;23.50;99.90;;;;;;5264156;27;20128;-66
2021/07/06 06:46:33;;;;;;;15.98;10.50;;;23.50;99.90;;;;;;5264748;27;20166;-72
2021/07/06 06:49:04;;;;;;;16.30;10.67;;;23.50;99.90;;;;;;5267852;27;20111;-72
2021/07/06 06:51:32;;;;;;;18.90;10.65;;;23.50;99.90;;;;;;5267841;27;20189;-73
2021/07/06 06:54:01;;;;;;;15.33;9.70;;;23.50;99.90;;;;;;5266187;27;20122;-71
2021/07/06 06:56:29;;;;;;;23.00;10.45;;;23.70;99.90;;;;;;5265636;27;20190;-71
2021/07/06 06:58:56;;;;;;;15.80;9.97;;;23.80;99.90;;;;;;5266914;27;20122;-71
2021/07/06 07:01:24;;;;;;;11.83;9.67;;;23.80;99.90;;;;;;5265724;27;20142;-71
2021/07/06 07:03:51;;;;;;;14.73;10.07;;;23.80;99.90;;;;;;5265541;27;20391;-72
2021/07/06 07:06:18;;;;;;;13.30;9.70;;;23.90;99.90;;;;;;5267381;27;20110;-70
2021/07/06 07:08:45;;;;;;;13.07;9.27;;;24.00;99.90;;;;;;5266923;27;20130;-71
2021/07/06 07:11:12;;;;;;;13.57;9.33;;;24.00;99.90;;;;;;5265247;27;20125;-70
2021/07/06 07:13:39;;;;;;;14.02;9.65;;;24.10;99.90;;;;;;5267441;27;20114;-71
2021/07/06 07:16:06;;;;;;;14.27;10.43;;;24.20;99.90;;;;;;5265512;27;20137;-71
2021/07/06 07:18:33;;;;;;;13.60;10.43;;;24.10;99.90;;;;;;5265306;27;20142;-70
2021/07/06 07:21:00;;;;;;;13.07;10.17;;;24.00;99.90;;;;;;5267724;27;20115;-71
2021/07/06 07:23:27;;;;;;;14.55;10.50;;;24.10;99.90;;;;;;5265516;27;20111;-71
2021/07/06 07:25:54;;;;;;;13.27;10.07;;;23.90;99.90;;;;;;5266570;27;20390;-71
2021/07/06 07:28:21;;;;;;;13.57;9.52;;;24.10;99.90;;;;;;5265387;27;20125;-71
2021/07/06 07:30:48;;;;;;;12.03;9.13;;;24.10;99.90;;;;;;5265502;27;20110;-71
2021/07/06 07:33:14;;;;;;;11.85;9.15;;;24.30;99.90;;;;;;5265756;27;20114;-71
2021/07/06 07:35:41;;;;;;;11.20;8.90;;;24.40;99.90;;;;;;5265251;27;20111;-71
2021/07/06 07:38:09;;;;;;;13.40;9.52;;;24.50;99.90;;;;;;5266850;27;20475;-71
2021/07/06 07:40:36;;;;;;;14.10;9.20;;;24.70;99.90;;;;;;5265737;27;20114;-72
2021/07/06 07:43:06;;;;;;;11.38;8.38;;;24.90;99.90;;;;;;5267177;27;20126;-70
2021/07/06 07:45:34;;;;;;;14.82;9.02;;;25.10;99.90;;;;;;5265635;27;20177;-71
2021/07/06 07:48:03;;;;;;;12.13;8.93;;;25.20;99.90;;;;;;5265350;27;20123;-71
2021/07/06 07:50:31;;;;;;;12.02;8.98;;;25.10;99.90;;;;;;5265238;27;20154;-71
2021/07/06 07:52:57;;;;;;;10.40;8.77;;;24.90;99.90;;;;;;5267434;27;20114;-73
2021/07/06 07:55:24;;;;;;;13.32;8.65;;;25.10;99.90;;;;;;5265177;27;20130;-72
2021/07/06 07:57:51;;;;;;;11.25;9.27;;;25.20;99.90;;;;;;5264909;27;20162;-71
2021/07/06 08:00:19;;;;;;;11.12;8.88;;;25.20;99.90;;;;;;5264108;27;20149;-71
2021/07/06 08:02:46;;;;;;;11.93;9.47;;;25.20;99.90;;;;;;5265107;27;20422;-71
2021/07/06 08:05:15;;;;;;;12.93;9.60;;;25.20;99.90;;;;;;5265317;27;20142;-72
2021/07/06 08:07:42;;;;;;;11.48;8.52;;;25.20;99.90;;;;;;5264878;27;20115;-72
2021/07/06 08:10:10;;;;;;;12.40;9.52;;;25.30;99.90;;;;;;5264328;27;20175;-71
2021/07/06 08:12:37;;;;;;;13.40;9.00;;;25.20;99.90;;;;;;5265155;27;20114;-71
2021/07/06 08:15:05;;;;;;;12.70;9.52;;;25.20;99.90;;;;;;5267161;27;20180;-71
2021/07/06 08:17:32;;;;;;;13.85;9.50;;;25.30;99.90;;;;;;5264778;27;20123;-72
2021/07/06 08:20:01;;;;;;;13.48;9.60;;;25.20;99.90;;;;;;5267233;27;20114;-72
2021/07/06 08:22:28;;;;;;;12.55;9.13;;;25.20;99.90;;;;;;5265085;27;20172;-71
2021/07/06 08:24:55;;;;;;;10.02;8.40;;;25.30;99.90;;;;;;5265394;27;20171;-71
2021/07/06 08:27:22;;;;;;;10.48;8.35;;;25.50;99.90;;;;;;5265021;27;20396;-71
2021/07/06 08:29:49;;;;;;;13.52;9.07;;;26.00;99.90;;;;;;5264877;27;20486;-70
2021/07/06 08:32:16;;;;;;;20.48;10.20;;;26.60;99.90;;;;;;5265031;27;20119;-72
2021/07/06 08:34:43;;;;;;;17.30;9.77;;;27.10;99.90;;;;;;5265001;27;20151;-71
2021/07/06 08:37:11;;;;;;;11.93;9.65;;;28.00;99.90;;;;;;5264815;27;20119;-71
2021/07/06 08:39:37;;;;;;;11.20;9.40;;;28.50;99.90;;;;;;5264866;27;20114;-71
2021/07/06 08:42:09;;;;;;;11.18;8.60;;;28.30;99.90;;;;;;5265184;27;20115;-72
2021/07/06 08:44:37;;;;;;;10.88;7.75;;;28.70;98.60;;;;;;5264974;27;20464;-71
2021/07/06 08:47:05;;;;;;;6.30;5.35;;;28.80;97.40;;;;;;5264337;27;20472;-71
2021/07/06 08:49:34;;;;;;;7.28;5.93;;;28.80;91.70;;;;;;5265049;27;20391;-72
2021/07/06 08:52:03;;;;;;;8.20;5.87;;;28.40;91.60;;;;;;5267055;27;20409;-71
2021/07/06 08:54:30;;;;;;;8.95;6.60;;;28.80;92.80;;;;;;5265031;27;20418;-71
2021/07/06 08:56:57;;;;;;;9.13;6.75;;;28.60;93.30;;;;;;5264775;27;20338;-71
2021/07/06 08:59:31;;;;;;;19.55;7.53;;;29.00;93.80;;;;;;5264837;27;20233;-71
2021/07/06 09:01:58;;;;;;;13.70;7.65;;;29.60;93.30;;;;;;5264723;27;20111;-71
2021/07/06 09:04:45;;;;;;;11.70;7.70;;;29.90;91.60;;;;;;5266769;27;20360;-71
2021/07/06 09:07:13;;;;;;;9.52;7.10;;;30.00;90.30;;;;;;5267125;27;20110;-70
2021/07/06 09:09:40;;;;;;;11.18;7.90;;;29.90;91.00;;;;;;5264203;27;20154;-71
2021/07/06 09:12:10;;;;;;;9.07;7.40;;;30.30;91.00;;;;;;5263708;27;20383;-71
2021/07/06 09:14:41;;;;;;;11.30;8.27;;;30.70;91.10;;;;;;5264939;27;20157;-71
2021/07/06 09:17:22;;;;;;;11.95;8.10;;;30.30;89.60;;;;;;5265211;27;20378;-71
2021/07/06 09:19:54;;;;;;;9.63;8.15;;;29.80;90.10;;;;;;5264813;27;20110;-71
2021/07/06 09:22:31;;;;;;;10.30;8.07;;;29.40;90.70;;;;;;5266782;27;20123;-72
2021/07/06 09:25:01;;;;;;;10.10;8.57;;;29.00;92.60;;;;;;5264840;27;20155;-73
2021/07/06 09:27:34;;;;;;;8.73;7.82;;;29.30;91.00;;;;;;5264898;27;20385;-72
2021/07/06 09:30:20;;;;;;;11.25;8.20;;;29.70;90.70;;;;;;5265708;27;20106;-73
2021/07/06 09:32:57;;;;;;;9.15;8.25;;;30.00;91.10;;;;;;5266110;27;20111;-72
2021/07/06 09:35:30;;;;;;;11.15;8.48;;;30.20;90.00;;;;;;5265703;27;20125;-73
2021/07/06 09:38:04;;;;;;;12.30;8.27;;;30.40;90.50;;;;;;5265527;27;20339;-73
2021/07/06 09:40:42;;;;;;;8.48;7.47;;;30.70;89.10;;;;;;5265686;27;20205;-73
2021/07/06 09:43:18;;;;;;;10.18;8.05;;;30.90;86.10;;;;;;5264467;27;20110;-74
2021/07/06 09:46:10;;;;;;;9.00;7.68;;;30.60;87.10;;;;;;5265569;27;20138;-73
2021/07/06 09:48:43;;;;;;;8.98;7.50;;;30.60;83.10;;;;;;5265259;27;20441;-72
2021/07/06 09:51:22;;;;;;;8.57;7.50;;;30.60;81.50;;;;;;5263936;27;20115;-72
2021/07/06 09:53:51;;;;;;;9.73;7.80;;;30.60;81.70;;;;;;5243667;27;20142;-73
2021/07/06 09:56:22;;;;;;;11.57;7.95;;;29.30;83.60;;;;;;5244362;27;20126;-74
2021/07/06 09:59:02;;;;;;;8.88;7.97;;;29.50;85.50;;;;;;5265259;27;20362;-74
2021/07/06 10:01:30;;;;;;;10.38;7.25;;;30.10;84.10;;;;;;5243011;27;20122;-73
2021/07/06 10:03:58;;;;;;;8.30;7.47;;;30.50;81.20;;;;;;5262232;27;20127;-74
2021/07/06 10:06:28;;;;;;;11.35;7.65;;;30.50;79.70;;;;;;5262506;27;20157;-74
2021/07/06 10:08:56;;;;;;;8.38;7.03;;;30.60;80.00;;;;;;5262364;27;20230;-73
2021/07/06 10:11:24;;;;;;;8.25;7.00;;;30.70;79.70;;;;;;5262855;27;20148;-73
2021/07/06 10:13:52;;;;;;;7.30;6.57;;;31.00;77.60;;;;;;5264189;27;20321;-73
2021/07/06 10:16:19;;;;;;;9.18;7.40;;;31.10;76.60;;;;;;5265516;27;20115;-73
2021/07/06 10:18:49;;;;;;;26.30;9.05;;;31.20;76.30;;;;;;5264175;27;20433;-73
2021/07/06 10:21:16;;;;;;;7.87;7.07;;;31.10;77.10;;;;;;5265386;27;20457;-73
2021/07/06 10:23:44;;;;;;;65.18;13.32;;;31.10;74.60;;;;;;5264111;27;20132;-73
2021/07/06 10:26:19;;;;;;;12.23;6.90;;;31.20;77.70;;;;;;5264214;27;20426;-73
2021/07/06 10:28:51;;;;;;;19.17;7.37;;;31.50;75.60;;;;;;5246048;27;20499;-73
2021/07/06 10:31:19;;;;;;;7.00;6.22;;;32.00;74.60;;;;;;5266477;27;20111;-74
2021/07/06 10:33:48;;;;;;;8.18;6.50;;;32.40;71.70;;;;;;5262560;27;20138;-74
2021/07/06 10:36:33;;;;;;;7.37;6.20;;;32.20;71.20;;;;;;5261462;27;20154;-75
2021/07/06 10:39:00;;;;;;;37.13;9.82;;;32.40;70.70;;;;;;5263087;27;20393;-72
2021/07/06 10:41:36;;;;;;;56.25;9.23;;;32.90;71.10;;;;;;5264251;27;20153;-74
2021/07/06 10:44:05;;;;;;;107.32;14.45;;;33.00;69.60;;;;;;5263847;27;20154;-73
2021/07/06 10:46:38;;;;;;;29.45;7.95;;;33.30;65.80;;;;;;5264012;27;20184;-74
2021/07/06 10:49:08;;;;;;;362.35;29.45;;;33.10;68.20;;;;;;5264109;27;20157;-74
2021/07/06 10:51:37;;;;;;;80.57;12.20;;;33.00;71.20;;;;;;5264142;27;20141;-73
2021/07/06 10:54:06;;;;;;;26.30;6.75;;;32.50;68.70;;;;;;5263983;27;20158;-73
2021/07/06 10:56:37;;;;;;;47.05;8.35;;;32.80;65.40;;;;;;5265201;27;20176;-74
2021/07/06 10:59:05;;;;;;;38.55;8.13;;;33.00;66.50;;;;;;5263263;27;20226;-74
2021/07/06 11:01:47;;;;;;;8.43;5.45;;;33.60;66.30;;;;;;5265579;27;20279;-73
2021/07/06 11:04:47;;;;;;;15.18;5.87;;;33.60;62.30;;;;;;5264994;27;20142;-73
2021/07/06 11:07:29;;;;;;;5.30;4.80;;;33.40;62.80;;;;;;5225197;27;20519;-72
2021/07/06 11:09:56;;;;;;;10.77;4.35;;;33.60;63.30;;;;;;5266120;27;20144;-72
2021/07/06 11:12:24;;;;;;;7.07;4.65;;;33.60;61.80;;;;;;5263694;27;20365;-72
2021/07/06 11:14:59;;;;;;;36.30;8.38;;;33.10;60.80;;;;;;5263542;27;20413;-72
2021/07/06 11:17:32;;;;;;;16.85;5.53;;;32.90;63.40;;;;;;5265956;27;20114;-73
2021/07/06 11:20:05;;;;;;;31.65;8.05;;;33.80;61.40;;;;;;5266025;27;20126;-73
2021/07/06 11:22:47;;;;;;;5.68;4.90;;;33.90;61.20;;;;;;5265695;27;20166;-72
2021/07/06 11:25:27;;;;;;;10.07;5.28;;;33.80;59.40;;;;;;5263812;27;20133;-73
2021/07/06 11:28:06;;;;;;;6.45;4.85;;;33.50;59.80;;;;;;5266626;27;20106;-73
2021/07/06 11:30:39;;;;;;;6.00;4.82;;;33.40;60.00;;;;;;5265754;27;20126;-75
2021/07/06 11:33:22;;;;;;;9.50;5.50;;;33.60;60.40;;;;;;5266361;27;20162;-73
2021/07/06 11:36:00;;;;;;;6.85;5.10;;;33.80;59.80;;;;;;5264870;27;20126;-72
2021/07/06 11:38:28;;;;;;;12.55;5.60;;;33.80;58.40;;;;;;5267424;27;20153;-74
2021/07/06 11:40:57;;;;;;;5.82;4.72;;;33.80;59.30;;;;;;5265209;27;20138;-72
2021/07/06 11:43:26;;;;;;;5.72;4.72;;;33.50;57.50;;;;;;5265959;27;20230;-73
2021/07/06 11:46:20;;;;;;;4.78;4.28;;;33.10;58.30;;;;;;5265083;27;20142;-72
2021/07/06 11:48:54;;;;;;;10.20;5.18;;;33.30;58.10;;;;;;5266244;27;20119;-74
2021/07/06 11:51:23;;;;;;;5.40;4.20;;;34.10;59.00;;;;;;5266025;27;20114;-73
2021/07/06 11:53:54;;;;;;;8.57;4.53;;;34.60;58.40;;;;;;5267521;27;20110;-75
2021/07/06 11:56:25;;;;;;;5.78;3.92;;;35.10;57.40;;;;;;5264981;27;20111;-75
2021/07/06 11:58:53;;;;;;;7.47;4.18;;;36.00;53.60;;;;;;5267060;27;20151;-73
2021/07/06 12:01:21;;;;;;;5.90;3.90;;;35.60;54.10;;;;;;5264795;27;20110;-73
2021/07/06 12:03:48;;;;;;;5.20;4.07;;;35.50;52.70;;;;;;5265328;27;20174;-73
2021/07/06 12:06:18;;;;;;;4.10;3.70;;;35.90;55.00;;;;;;5267339;27;20150;-73
2021/07/06 12:08:48;;;;;;;5.35;3.78;;;36.30;50.60;;;;;;5264979;27;20138;-73
2021/07/06 12:11:24;;;;;;;4.15;3.75;;;36.20;51.60;;;;;;5265488;27;20160;-73
2021/07/06 12:13:57;;;;;;;4.20;3.80;;;36.00;50.90;;;;;;5267097;27;20367;-73
2021/07/06 12:16:30;;;;;;;4.85;3.80;;;35.70;51.20;;;;;;5264921;27;20127;-73
2021/07/06 12:19:10;;;;;;;229.45;23.55;;;35.30;51.20;;;;;;5266955;27;20122;-74
2021/07/06 12:21:42;;;;;;;88.00;12.52;;;35.50;54.20;;;;;;5267185;27;20114;-74
2021/07/06 12:24:21;;;;;;;11.60;4.78;;;35.90;53.10;;;;;;5265349;27;20370;-74
2021/07/06 12:26:51;;;;;;;35.90;7.32;;;36.30;51.00;;;;;;5266978;27;20491;-74
2021/07/06 12:29:32;;;;;;;7.18;4.20;;;36.80;51.30;;;;;;5264790;27;20115;-73
2021/07/06 12:32:00;;;;;;;26.98;6.30;;;35.90;51.70;;;;;;5266771;27;20134;-72
2021/07/06 12:34:50;;;;;;;6.40;3.85;;;35.80;51.60;;;;;;5265497;27;20118;-74
2021/07/06 12:37:18;;;;;;;51.70;8.88;;;36.00;48.60;;;;;;5267133;27;20114;-75
2021/07/06 12:39:46;;;;;;;220.88;23.08;;;36.60;50.20;;;;;;5264530;27;20168;-72
2021/07/06 12:42:18;;;;;;;12.50;5.45;;;35.50;51.30;;;;;;5265034;27;20418;-72
2021/07/06 12:44:46;;;;;;;11.20;4.35;;;36.20;50.30;;;;;;5264440;27;20183;-73